createdAt,value
2024-03-03T00:00:39.057Z,179.00
2024-03-03T00:01:39.046Z,178.23
2024-03-03T00:02:39.142Z,183.34
2024-03-03T00:03:39.132Z,183.50
2024-03-03T00:04:39.141Z,187.72
2024-03-03T00:05:39.161Z,184.85
2024-03-03T00:06:39.409Z,183.20
2024-03-03T00:07:39.574Z,183.02
2024-03-03T00:08:39.770Z,182.94
2024-03-03T00:09:39.993Z,182.18
2024-03-03T00:10:40.194Z,180.75
2024-03-03T00:11:40.402Z,179.58
2024-03-03T00:12:41.443Z,179.41
2024-03-03T00:13:40.665Z,180.60
2024-03-03T00:14:40.688Z,185.48
2024-03-03T00:15:40.764Z,190.44
2024-03-03T00:16:40.768Z,195.39
2024-03-03T00:17:40.783Z,196.88
2024-03-03T00:18:40.868Z,199.87
2024-03-03T00:19:40.880Z,199.90
2024-03-03T00:20:40.912Z,200.50
2024-03-03T00:21:41.011Z,197.92
2024-03-03T00:22:41.104Z,196.93
2024-03-03T00:23:41.154Z,198.73
2024-03-03T00:24:41.200Z,199.29
2024-03-03T00:25:41.186Z,199.25
2024-03-03T00:26:41.317Z,199.47
2024-03-03T00:27:41.291Z,196.31
2024-03-03T00:28:41.311Z,195.50
2024-03-03T00:29:41.317Z,193.78
2024-03-03T00:30:41.485Z,192.08
2024-03-03T00:31:41.453Z,189.43
2024-03-03T00:32:41.507Z,192.39
2024-03-03T00:33:41.568Z,192.13
2024-03-03T00:34:41.605Z,188.73
2024-03-03T00:35:41.685Z,185.58
2024-03-03T00:36:41.755Z,186.39
2024-03-03T00:37:41.832Z,185.07
2024-03-03T00:38:41.917Z,186.45
2024-03-03T00:39:41.985Z,189.18
2024-03-03T00:40:42.121Z,187.82
2024-03-03T00:41:42.270Z,188.51
2024-03-03T00:42:42.520Z,185.42
2024-03-03T00:43:42.726Z,185.11
2024-03-03T00:44:42.959Z,184.28
2024-03-03T00:45:43.222Z,183.59
2024-03-03T00:46:43.413Z,181.36
2024-03-03T00:47:43.681Z,182.27
2024-03-03T00:48:43.922Z,179.74
2024-03-03T00:49:44.323Z,181.35
2024-03-03T00:50:44.127Z,181.44
2024-03-03T00:51:44.167Z,185.77
2024-03-03T00:52:44.174Z,190.43
2024-03-03T00:53:44.210Z,198.14
2024-03-03T00:54:44.290Z,201.60
2024-03-03T00:55:44.317Z,198.67
2024-03-03T00:56:44.388Z,196.14
2024-03-03T00:57:44.445Z,196.34
2024-03-03T00:58:44.462Z,197.41
2024-03-03T00:59:44.522Z,200.11
2024-03-03T01:00:44.612Z,198.39
2024-03-03T01:01:44.627Z,196.49
2024-03-03T01:02:44.704Z,193.23
2024-03-03T01:03:44.738Z,190.79
2024-03-03T01:04:44.723Z,189.11
2024-03-03T01:05:44.750Z,187.06
2024-03-03T01:06:44.876Z,185.91
2024-03-03T01:07:44.913Z,187.41
2024-03-03T01:08:44.928Z,189.32
2024-03-03T01:09:45.011Z,189.29
2024-03-03T01:10:44.970Z,191.41
2024-03-03T01:11:45.051Z,189.64
2024-03-03T01:12:45.104Z,187.30
2024-03-03T01:13:45.078Z,186.79
2024-03-03T01:14:45.109Z,186.39
2024-03-03T01:15:45.198Z,186.11
2024-03-03T01:16:45.183Z,185.50
2024-03-03T01:17:45.218Z,183.96
2024-03-03T01:18:45.365Z,181.41
2024-03-03T01:19:45.329Z,180.22
2024-03-03T01:20:45.353Z,179.77
2024-03-03T01:21:45.477Z,179.71
2024-03-03T01:22:45.457Z,178.79
2024-03-03T01:23:45.565Z,178.26
2024-03-03T01:24:45.642Z,179.73
2024-03-03T01:25:45.641Z,179.07
2024-03-03T01:26:45.694Z,175.59
2024-03-03T01:27:45.788Z,176.66
2024-03-03T01:28:45.773Z,175.71
2024-03-03T01:29:45.852Z,175.55
2024-03-03T01:30:46.021Z,174.34
2024-03-03T01:31:46.127Z,172.92
2024-03-03T01:32:46.195Z,170.09
2024-03-03T01:33:46.216Z,169.80
2024-03-03T01:34:46.251Z,168.92
2024-03-03T01:35:46.230Z,168.25
2024-03-03T01:36:46.359Z,167.64
2024-03-03T01:37:46.432Z,170.65
2024-03-03T01:38:46.464Z,171.34
2024-03-03T01:39:46.519Z,174.20
2024-03-03T01:40:46.542Z,180.32
2024-03-03T01:41:46.604Z,185.30
2024-03-03T01:42:46.669Z,189.85
2024-03-03T01:43:46.701Z,194.33
2024-03-03T01:44:46.738Z,200.70
2024-03-03T01:45:46.811Z,202.21
2024-03-03T01:46:46.836Z,203.51
2024-03-03T01:47:46.922Z,200.00
2024-03-03T01:48:46.953Z,197.60
2024-03-03T01:49:47.108Z,199.74
2024-03-03T01:50:47.357Z,200.03
2024-03-03T01:51:47.433Z,200.00
2024-03-03T01:52:47.484Z,197.48
2024-03-03T01:53:47.515Z,197.50
2024-03-03T01:54:47.561Z,197.18
2024-03-03T01:55:47.643Z,196.34
2024-03-03T01:56:47.762Z,194.08
2024-03-03T01:57:47.897Z,192.68
2024-03-03T01:58:47.836Z,191.93
2024-03-03T01:59:47.882Z,190.53
2024-03-03T02:00:47.974Z,189.35
2024-03-03T02:01:48.035Z,187.32
2024-03-03T02:02:47.974Z,186.42
2024-03-03T02:03:48.230Z,183.53
2024-03-03T02:04:48.431Z,180.56
2024-03-03T02:05:48.645Z,178.46
2024-03-03T02:06:48.928Z,178.31
2024-03-03T02:07:49.117Z,177.71
2024-03-03T02:08:49.321Z,177.55
2024-03-03T02:09:49.632Z,175.77
2024-03-03T02:10:49.794Z,175.42
2024-03-03T02:11:49.996Z,172.08
2024-03-03T02:12:50.301Z,169.30
2024-03-03T02:13:50.451Z,167.41
2024-03-03T02:14:50.674Z,166.59
2024-03-03T02:15:50.929Z,166.02
2024-03-03T02:16:51.184Z,166.13
2024-03-03T02:17:51.465Z,166.99
2024-03-03T02:18:51.710Z,170.91
2024-03-03T02:19:52.015Z,173.19
2024-03-03T02:20:52.151Z,171.28
2024-03-03T02:21:52.437Z,168.54
2024-03-03T02:22:52.669Z,166.28
2024-03-03T02:23:52.845Z,164.04
2024-03-03T02:24:53.156Z,161.17
2024-03-03T02:25:53.350Z,160.67
2024-03-03T02:26:53.663Z,160.84
2024-03-03T02:27:53.844Z,160.59
2024-03-03T02:28:54.071Z,162.69
2024-03-03T02:29:54.300Z,163.80
2024-03-03T02:30:54.558Z,163.89
2024-03-03T02:31:54.756Z,160.31
2024-03-03T02:32:55.030Z,156.51
2024-03-03T02:33:55.319Z,155.70
2024-03-03T02:34:55.493Z,155.33
2024-03-03T02:35:55.730Z,154.16
2024-03-03T02:36:56.012Z,153.07
2024-03-03T02:37:56.197Z,152.45
2024-03-03T02:38:56.423Z,153.83
2024-03-03T02:39:56.686Z,153.03
2024-03-03T02:40:56.894Z,153.01
2024-03-03T02:41:57.160Z,151.43
2024-03-03T02:42:57.394Z,150.47
2024-03-03T02:43:57.625Z,151.88
2024-03-03T02:44:57.884Z,152.09
2024-03-03T02:45:58.178Z,151.91
2024-03-03T02:46:58.407Z,153.05
2024-03-03T02:47:58.726Z,154.18
2024-03-03T02:48:58.974Z,150.59
2024-03-03T02:49:59.206Z,151.00
2024-03-03T02:50:59.479Z,153.59
2024-03-03T02:51:59.762Z,154.98
2024-03-03T02:52:59.986Z,155.51
2024-03-03T02:54:00.240Z,154.42
2024-03-03T02:55:00.535Z,152.32
2024-03-03T02:56:00.762Z,150.71
2024-03-03T02:57:00.983Z,152.27
2024-03-03T02:58:01.256Z,154.46
2024-03-03T02:59:01.486Z,156.02
2024-03-03T03:00:01.753Z,156.05
2024-03-03T03:01:02.132Z,156.15
2024-03-03T03:02:02.287Z,155.54
2024-03-03T03:03:02.472Z,154.18
2024-03-03T03:04:02.822Z,154.32
2024-03-03T03:05:03.005Z,154.68
2024-03-03T03:06:03.235Z,157.50
2024-03-03T03:07:03.516Z,159.78
2024-03-03T03:08:03.741Z,161.91
2024-03-03T03:09:03.998Z,163.51
2024-03-03T03:10:04.318Z,163.07
2024-03-03T03:11:04.548Z,161.97
2024-03-03T03:12:04.754Z,160.70
2024-03-03T03:13:05.041Z,159.75
2024-03-03T03:14:05.273Z,159.81
2024-03-03T03:15:05.495Z,161.38
2024-03-03T03:16:05.736Z,163.25
2024-03-03T03:17:05.933Z,164.14
2024-03-03T03:18:06.023Z,164.03
2024-03-03T03:19:06.100Z,165.12
2024-03-03T03:20:06.125Z,165.46
2024-03-03T03:21:06.178Z,165.54
2024-03-03T03:22:06.261Z,164.27
2024-03-03T03:23:06.298Z,165.02
2024-03-03T03:24:06.432Z,165.92
2024-03-03T03:25:06.744Z,167.35
2024-03-03T03:26:07.019Z,168.50
2024-03-03T03:27:07.218Z,167.88
2024-03-03T03:28:07.565Z,168.36
2024-03-03T03:29:07.703Z,169.59
2024-03-03T03:30:08.130Z,167.83
2024-03-03T03:31:08.262Z,165.91
2024-03-03T03:32:08.437Z,162.27
2024-03-03T03:33:08.572Z,159.12
2024-03-03T03:34:08.662Z,158.17
2024-03-03T03:35:08.677Z,156.98
2024-03-03T03:36:08.748Z,156.26
2024-03-03T03:37:08.953Z,156.21
2024-03-03T03:38:08.874Z,155.46
2024-03-03T03:39:08.913Z,152.91
2024-03-03T03:40:09.087Z,149.06
2024-03-03T03:41:09.282Z,146.53
2024-03-03T03:42:09.524Z,143.98
2024-03-03T03:43:09.817Z,143.89
2024-03-03T03:44:09.847Z,144.46
2024-03-03T03:45:09.921Z,145.62
2024-03-03T03:46:10.049Z,146.32
2024-03-03T03:47:10.061Z,146.17
2024-03-03T03:48:10.108Z,146.44
2024-03-03T03:49:10.153Z,149.61
2024-03-03T03:50:10.247Z,152.34
2024-03-03T03:51:10.415Z,155.67
2024-03-03T03:52:10.628Z,158.05
2024-03-03T03:53:10.837Z,161.64
2024-03-03T03:54:11.005Z,164.38
2024-03-03T03:55:11.260Z,166.47
2024-03-03T03:56:11.455Z,167.18
2024-03-03T03:57:11.696Z,165.59
2024-03-03T03:58:11.996Z,166.63
2024-03-03T03:59:12.124Z,168.99
2024-03-03T04:00:12.399Z,168.02
2024-03-03T04:01:12.724Z,166.80
2024-03-03T04:02:12.882Z,165.50
2024-03-03T04:03:13.124Z,164.62
2024-03-03T04:04:13.385Z,166.10
2024-03-03T04:05:13.614Z,167.61
2024-03-03T04:06:13.825Z,168.38
2024-03-03T04:07:14.108Z,166.50
2024-03-03T04:08:14.297Z,163.91
2024-03-03T04:09:14.525Z,162.76
2024-03-03T04:10:14.762Z,165.07
2024-03-03T04:11:15.058Z,170.98
2024-03-03T04:12:15.242Z,174.94
2024-03-03T04:13:15.618Z,176.77
2024-03-03T04:14:15.754Z,180.96
2024-03-03T04:15:16.020Z,183.05
2024-03-03T04:16:16.374Z,180.59
2024-03-03T04:17:16.472Z,178.86
2024-03-03T04:18:16.713Z,179.23
2024-03-03T04:19:17.030Z,179.82
2024-03-03T04:20:17.206Z,180.57
2024-03-03T04:21:17.484Z,180.47
2024-03-03T04:22:17.731Z,179.00
2024-03-03T04:23:17.932Z,175.50
2024-03-03T04:24:18.190Z,175.26
2024-03-03T04:25:18.485Z,169.37
2024-03-03T04:26:18.687Z,163.16
2024-03-03T04:27:18.964Z,163.67
2024-03-03T04:28:19.237Z,161.75
2024-03-03T04:29:19.456Z,160.13
2024-03-03T04:30:19.700Z,162.95
2024-03-03T04:31:20.032Z,163.53
2024-03-03T04:32:20.224Z,166.00
2024-03-03T04:33:20.504Z,170.20
2024-03-03T04:34:20.819Z,173.87
2024-03-03T04:35:21.028Z,175.38
2024-03-03T04:36:21.284Z,177.77
2024-03-03T04:37:21.693Z,182.39
2024-03-03T04:38:21.783Z,185.65
2024-03-03T04:39:22.054Z,186.57
2024-03-03T04:40:29.999Z,50.00
2024-03-03T04:41:30.193Z,50.00
2024-03-03T04:42:30.428Z,50.00
2024-03-03T04:43:30.650Z,50.00
2024-03-03T04:44:30.859Z,50.00
2024-03-03T04:45:31.090Z,50.00
2024-03-03T04:46:31.339Z,50.99
2024-03-03T04:47:31.542Z,53.69
2024-03-03T04:48:31.677Z,52.81
2024-03-03T04:49:31.871Z,53.27
2024-03-03T04:50:32.058Z,50.21
2024-03-03T04:51:32.298Z,50.00
2024-03-03T04:52:32.540Z,50.12
2024-03-03T04:53:32.751Z,51.75
2024-03-03T04:54:32.965Z,50.31
2024-03-03T04:55:33.200Z,51.74
2024-03-03T04:56:33.431Z,53.63
2024-03-03T04:57:33.534Z,52.80
2024-03-03T04:58:33.855Z,53.13
2024-03-03T04:59:34.089Z,55.97
2024-03-03T05:00:34.370Z,59.26
2024-03-03T05:01:34.684Z,59.84
2024-03-03T05:02:34.747Z,62.17
2024-03-03T05:03:34.929Z,60.21
2024-03-03T05:04:35.044Z,57.45
2024-03-03T05:05:35.343Z,59.61
2024-03-03T05:06:35.521Z,56.25
2024-03-03T05:07:35.677Z,50.00
2024-03-03T05:08:35.882Z,52.65
2024-03-03T05:09:35.974Z,50.72
2024-03-03T05:10:36.165Z,51.03
2024-03-03T05:11:36.466Z,59.46
2024-03-03T05:12:36.807Z,72.68
2024-03-03T05:13:36.748Z,90.57
2024-03-03T05:14:36.971Z,100.99
2024-03-03T05:15:37.143Z,105.98
2024-03-03T05:16:37.385Z,97.20
2024-03-03T05:17:37.563Z,87.15
2024-03-03T05:18:37.809Z,73.39
2024-03-03T05:19:38.038Z,60.93
2024-03-03T05:20:38.275Z,50.00
2024-03-03T05:21:38.539Z,48.68
2024-03-03T05:22:38.709Z,51.19
2024-03-03T05:23:38.901Z,55.51
2024-03-03T05:24:39.117Z,57.02
2024-03-03T05:25:39.292Z,54.06
2024-03-03T05:26:39.398Z,51.37
2024-03-03T05:27:39.752Z,50.93
2024-03-03T05:28:39.883Z,51.96
2024-03-03T05:29:40.064Z,51.12
2024-03-03T05:30:40.303Z,50.67
2024-03-03T05:31:40.404Z,52.79
2024-03-03T05:32:40.776Z,52.52
2024-03-03T05:33:40.929Z,50.12
2024-03-03T05:34:41.128Z,50.04
2024-03-03T05:35:41.209Z,56.86
2024-03-03T05:36:41.439Z,69.33
2024-03-03T05:37:41.782Z,88.47
2024-03-03T05:38:41.858Z,92.79
2024-03-03T05:39:42.213Z,106.30
2024-03-03T05:40:42.413Z,118.25
2024-03-03T05:41:42.656Z,125.09
2024-03-03T05:42:42.970Z,125.62
2024-03-03T05:43:43.136Z,117.79
2024-03-03T05:44:43.396Z,112.78
2024-03-03T05:45:43.633Z,113.62
2024-03-03T05:46:43.828Z,104.20
2024-03-03T05:47:44.116Z,94.38
2024-03-03T05:48:44.229Z,87.82
2024-03-03T05:49:44.449Z,83.70
2024-03-03T05:50:44.668Z,70.79
2024-03-03T05:51:44.899Z,65.32
2024-03-03T05:52:45.073Z,60.26
2024-03-03T05:53:45.169Z,65.76
2024-03-03T05:54:45.386Z,73.15
2024-03-03T05:55:45.568Z,72.54
2024-03-03T05:56:45.769Z,69.28
2024-03-03T05:57:46.009Z,67.51
2024-03-03T05:58:46.095Z,64.00
2024-03-03T05:59:46.277Z,62.01
2024-03-03T06:00:46.490Z,67.03
2024-03-03T06:01:46.852Z,72.83
2024-03-03T06:02:46.931Z,70.59
2024-03-03T06:03:47.150Z,70.86
2024-03-03T06:04:47.389Z,65.39
2024-03-03T06:05:47.609Z,63.07
2024-03-03T06:06:47.812Z,62.94
2024-03-03T06:07:47.998Z,59.33
2024-03-03T06:08:48.169Z,53.27
2024-03-03T06:09:48.422Z,50.00
2024-03-03T06:10:48.747Z,50.00
2024-03-03T06:11:48.946Z,50.21
2024-03-03T06:12:49.159Z,51.00
2024-03-03T06:13:49.367Z,54.82
2024-03-03T06:14:49.574Z,53.26
2024-03-03T06:15:49.812Z,53.39
2024-03-03T06:16:53.574Z,59.88
2024-03-03T06:17:50.073Z,60.25
2024-03-03T06:18:50.088Z,61.78
2024-03-03T06:19:50.074Z,64.18
2024-03-03T06:20:50.068Z,69.16
2024-03-03T06:21:50.097Z,72.01
2024-03-03T06:22:50.110Z,62.85
2024-03-03T06:23:50.115Z,56.89
2024-03-03T06:24:50.150Z,56.14
2024-03-03T06:25:50.139Z,58.12
2024-03-03T06:26:50.157Z,53.24
2024-03-03T06:27:50.187Z,55.27
2024-03-03T06:28:50.189Z,69.75
2024-03-03T06:29:50.213Z,73.09
2024-03-03T06:30:50.239Z,92.72
2024-03-03T06:31:50.283Z,109.20
2024-03-03T06:32:50.314Z,114.35
2024-03-03T06:33:50.341Z,122.50
2024-03-03T06:34:50.337Z,133.09
2024-03-03T06:35:50.342Z,142.23
2024-03-03T06:36:50.379Z,146.43
2024-03-03T06:37:50.393Z,149.25
2024-03-03T06:38:50.400Z,145.30
2024-03-03T06:39:50.460Z,136.39
2024-03-03T06:40:50.438Z,119.75
2024-03-03T06:41:50.462Z,111.66
2024-03-03T06:42:50.521Z,103.25
2024-03-03T06:43:50.477Z,99.65
2024-03-03T06:44:50.496Z,108.86
2024-03-03T06:45:50.537Z,120.49
2024-03-03T06:46:50.531Z,133.28
2024-03-03T06:47:50.564Z,138.87
2024-03-03T06:48:50.572Z,139.61
2024-03-03T06:49:50.570Z,145.74
2024-03-03T06:50:50.590Z,152.05
2024-03-03T06:51:50.665Z,154.71
2024-03-03T06:52:50.632Z,159.24
2024-03-03T06:53:50.641Z,164.55
2024-03-03T06:54:50.724Z,168.79
2024-03-03T06:55:50.681Z,178.99
2024-03-03T06:56:50.706Z,194.81
2024-03-03T06:57:50.751Z,200.43
2024-03-03T06:58:50.753Z,200.00
2024-03-03T06:59:50.754Z,200.00
2024-03-03T07:00:50.860Z,199.52
2024-03-03T07:01:50.995Z,199.42
2024-03-03T07:02:50.793Z,199.32
2024-03-03T07:03:50.821Z,199.61
2024-03-03T07:04:50.890Z,199.77
2024-03-03T07:05:50.960Z,197.73
2024-03-03T07:06:51.030Z,192.27
2024-03-03T07:07:51.085Z,185.45
2024-03-03T07:08:51.147Z,182.54
2024-03-03T07:09:51.237Z,176.34
2024-03-03T07:10:51.309Z,182.17
2024-03-03T07:11:51.321Z,190.23
2024-03-03T07:12:51.426Z,197.84
2024-03-03T07:13:51.434Z,200.00
2024-03-03T07:14:51.488Z,199.54
2024-03-03T07:15:51.586Z,199.07
2024-03-03T07:16:51.617Z,196.37
2024-03-03T07:17:51.610Z,200.00
2024-03-03T07:18:51.664Z,199.98
2024-03-03T07:19:51.693Z,200.00
2024-03-03T07:20:51.689Z,200.00
2024-03-03T07:21:51.739Z,199.18
2024-03-03T07:22:51.771Z,193.85
2024-03-03T07:23:51.814Z,190.39
2024-03-03T07:24:52.741Z,189.39
2024-03-03T07:25:51.927Z,189.48
2024-03-03T07:26:52.026Z,191.63
2024-03-03T07:27:52.098Z,192.95
2024-03-03T07:28:52.168Z,193.83
2024-03-03T07:29:52.183Z,195.10
2024-03-03T07:30:52.223Z,197.60
2024-03-03T07:31:52.246Z,196.48
2024-03-03T07:32:52.344Z,195.09
2024-03-03T07:33:52.431Z,196.68
2024-03-03T07:34:52.386Z,192.21
2024-03-03T07:35:52.382Z,188.78
2024-03-03T07:36:52.475Z,185.56
2024-03-03T07:37:52.429Z,185.08
2024-03-03T07:38:52.474Z,181.86
2024-03-03T07:39:52.546Z,183.00
2024-03-03T07:40:52.499Z,183.00
2024-03-03T07:41:52.554Z,190.15
2024-03-03T07:42:52.815Z,198.79
2024-03-03T07:43:53.001Z,200.00
2024-03-03T07:44:53.278Z,199.90
2024-03-03T07:45:53.476Z,200.00
2024-03-03T07:46:53.651Z,200.00
2024-03-03T07:47:53.901Z,197.54
2024-03-03T07:48:54.129Z,200.00
2024-03-03T07:49:54.308Z,200.04
2024-03-03T07:50:54.544Z,199.63
2024-03-03T07:51:54.783Z,198.96
2024-03-03T07:52:54.970Z,196.62
2024-03-03T07:53:55.198Z,196.54
2024-03-03T07:54:55.393Z,195.38
2024-03-03T07:55:55.610Z,195.57
2024-03-03T07:56:55.828Z,195.47
2024-03-03T07:57:56.101Z,192.22
2024-03-03T07:58:56.252Z,193.03
2024-03-03T07:59:56.475Z,195.56
2024-03-03T08:00:56.767Z,196.07
2024-03-03T08:01:57.027Z,197.75
2024-03-03T08:02:57.152Z,197.68
2024-03-03T08:03:57.392Z,198.66
2024-03-03T08:04:57.593Z,198.37
2024-03-03T08:05:57.812Z,195.42
2024-03-03T08:06:58.064Z,198.24
2024-03-03T08:07:58.229Z,198.14
2024-03-03T08:08:58.418Z,196.57
2024-03-03T08:09:58.696Z,195.23
2024-03-03T08:10:58.856Z,193.27
2024-03-03T08:11:59.114Z,187.97
2024-03-03T08:12:59.241Z,184.87
2024-03-03T08:13:59.364Z,183.38
2024-03-03T08:14:59.563Z,182.21
2024-03-03T08:15:59.766Z,176.82
2024-03-03T08:16:59.960Z,174.51
2024-03-03T08:18:02.078Z,176.81
2024-03-03T08:19:00.323Z,172.53
2024-03-03T08:20:00.978Z,175.29
2024-03-03T08:21:00.362Z,173.96
2024-03-03T08:22:00.412Z,176.47
2024-03-03T08:23:00.463Z,175.84
2024-03-03T08:24:00.566Z,172.79
2024-03-03T08:25:00.677Z,161.27
2024-03-03T08:26:00.543Z,157.24
2024-03-03T08:27:00.605Z,156.80
2024-03-03T08:28:00.683Z,156.80
2024-03-03T08:29:00.648Z,156.11
2024-03-03T08:30:00.692Z,155.84
2024-03-03T08:33:00.927Z,144.62
2024-03-03T08:34:00.839Z,142.09
2024-03-03T08:35:00.863Z,137.00
2024-03-03T08:36:00.899Z,135.54
2024-03-03T08:37:00.953Z,134.85
2024-03-03T08:38:00.923Z,136.79
2024-03-03T08:39:00.951Z,139.58
2024-03-03T08:40:01.040Z,143.70
2024-03-03T08:41:01.043Z,146.82
2024-03-03T08:42:01.075Z,141.25
2024-03-03T08:43:01.286Z,146.10
2024-03-03T08:44:01.414Z,147.41
2024-03-03T08:45:01.617Z,148.88
2024-03-03T08:46:01.873Z,149.32
2024-03-03T08:47:02.044Z,152.53
2024-03-03T08:48:02.322Z,152.31
2024-03-03T08:49:02.429Z,153.71
2024-03-03T08:50:02.649Z,152.20
2024-03-03T08:51:02.750Z,152.78
2024-03-03T08:52:02.938Z,154.36
2024-03-03T08:53:03.099Z,154.92
2024-03-03T08:54:03.367Z,151.62
2024-03-03T08:55:03.604Z,146.73
2024-03-03T08:56:03.773Z,144.52
2024-03-03T08:57:05.199Z,144.95
2024-03-03T08:58:04.090Z,147.09
2024-03-03T08:59:04.249Z,146.51
2024-03-03T09:00:04.112Z,149.34
2024-03-03T09:01:04.194Z,148.61
2024-03-03T09:02:04.286Z,143.97
2024-03-03T09:03:04.263Z,141.67
2024-03-03T09:04:04.417Z,141.64
2024-03-03T09:05:04.576Z,136.52
2024-03-03T09:06:04.787Z,134.84
2024-03-03T09:07:05.027Z,134.47
2024-03-03T09:08:05.176Z,139.64
2024-03-03T09:09:05.436Z,142.28
2024-03-03T09:10:05.522Z,151.62
2024-03-03T09:11:05.745Z,154.00
2024-03-03T09:12:05.832Z,161.17
2024-03-03T09:13:06.136Z,162.56
2024-03-03T09:14:06.392Z,164.70
2024-03-03T09:15:06.619Z,163.06
2024-03-03T09:16:06.885Z,162.52
2024-03-03T09:17:07.029Z,161.89
2024-03-03T09:18:07.289Z,163.07
2024-03-03T09:19:07.540Z,163.55
2024-03-03T09:20:07.553Z,165.91
2024-03-03T09:21:07.581Z,164.78
2024-03-03T09:22:07.634Z,164.70
2024-03-03T09:23:07.677Z,163.23
2024-03-03T09:24:09.384Z,163.38
2024-03-03T09:25:07.934Z,167.44
2024-03-03T09:26:07.792Z,168.74
2024-03-03T09:27:07.847Z,166.11
2024-03-03T09:28:07.953Z,166.89
2024-03-03T09:29:07.997Z,171.52
2024-03-03T09:30:09.752Z,170.44
2024-03-03T09:31:08.084Z,171.32
2024-03-03T09:32:08.068Z,167.86
2024-03-03T09:33:11.310Z,167.37
2024-03-03T09:34:08.113Z,169.44
2024-03-03T09:35:08.976Z,165.73
2024-03-03T09:36:08.086Z,165.62
2024-03-03T09:37:08.104Z,164.97
2024-03-03T09:38:08.075Z,167.59
2024-03-03T09:39:08.067Z,168.80
2024-03-03T09:40:08.090Z,161.32
2024-03-03T09:41:08.043Z,152.91
2024-03-03T09:42:08.033Z,145.83
2024-03-03T09:43:08.131Z,147.30
2024-03-03T09:44:08.008Z,148.84
2024-03-03T09:45:08.019Z,141.33
2024-03-03T09:46:09.729Z,138.40
2024-03-03T09:47:07.999Z,138.51
2024-03-03T09:48:08.049Z,139.63
2024-03-03T09:49:08.023Z,142.49
2024-03-03T09:50:08.019Z,145.57
2024-03-03T09:51:08.061Z,152.80
2024-03-03T09:52:08.084Z,159.14
2024-03-03T09:53:08.086Z,163.09
2024-03-03T09:54:08.082Z,164.18
2024-03-03T09:55:08.179Z,162.01
2024-03-03T09:56:08.103Z,158.73
2024-03-03T09:57:09.129Z,160.39
2024-03-03T09:58:08.137Z,158.02
2024-03-03T09:59:08.130Z,154.04
2024-03-03T10:00:08.112Z,151.06
2024-03-03T10:01:08.210Z,148.91
2024-03-03T10:02:08.206Z,151.46
2024-03-03T10:03:08.124Z,151.45
2024-03-03T10:04:08.227Z,147.54
2024-03-03T10:05:08.104Z,146.29
2024-03-03T10:06:08.088Z,142.25
2024-03-03T10:07:08.197Z,141.66
2024-03-03T10:08:08.083Z,140.11
2024-03-03T10:09:08.065Z,144.62
2024-03-03T10:10:08.075Z,147.68
2024-03-03T10:11:08.052Z,130.84
2024-03-03T10:12:07.980Z,131.39
2024-03-03T10:13:08.079Z,136.95
2024-03-03T10:14:07.951Z,142.05
2024-03-03T10:15:08.254Z,148.50
2024-03-03T10:16:08.453Z,156.14
2024-03-03T10:17:08.664Z,160.71
2024-03-03T10:18:08.958Z,154.79
2024-03-03T10:19:09.146Z,150.75
2024-03-03T10:20:09.324Z,149.52
2024-03-03T10:21:09.520Z,151.82
2024-03-03T10:22:09.759Z,152.61
2024-03-03T10:23:09.973Z,158.40
2024-03-03T10:24:10.126Z,153.18
2024-03-03T10:25:10.346Z,148.51
2024-03-03T10:26:10.615Z,144.52
2024-03-03T10:27:10.687Z,140.54
2024-03-03T10:28:10.895Z,130.15
2024-03-03T10:29:11.028Z,117.41
2024-03-03T10:30:11.419Z,105.09
2024-03-03T10:31:11.436Z,98.23
2024-03-03T10:32:11.625Z,90.45
2024-03-03T10:33:11.882Z,77.72
2024-03-03T10:34:11.958Z,37.61
2024-03-03T10:35:12.078Z,19.12
2024-03-03T10:36:14.371Z,15.07
2024-03-03T10:37:12.250Z,9.14
2024-03-03T10:38:12.188Z,3.74
2024-03-03T10:39:12.179Z,1.78
2024-03-03T10:40:12.331Z,0.00
2024-03-03T10:41:12.223Z,0.00
2024-03-03T10:42:12.234Z,0.00
2024-03-03T10:43:12.266Z,0.00
2024-03-03T10:44:12.248Z,0.00
2024-03-03T10:45:12.271Z,0.00
2024-03-03T10:46:12.334Z,0.00
2024-03-03T10:47:12.283Z,0.00
2024-03-03T10:48:12.369Z,0.00
2024-03-03T10:49:12.293Z,0.00
2024-03-03T10:50:12.284Z,0.00
2024-03-03T10:51:12.252Z,0.00
2024-03-03T10:52:12.251Z,0.00
2024-03-03T10:53:12.272Z,0.00
2024-03-03T10:54:12.144Z,0.00
2024-03-03T10:55:12.098Z,8.42
2024-03-03T10:56:12.081Z,16.67
2024-03-03T10:57:12.149Z,25.40
2024-03-03T10:58:12.316Z,35.08
2024-03-03T10:59:12.500Z,39.11
2024-03-03T11:00:12.677Z,40.88
2024-03-03T11:01:12.884Z,36.41
2024-03-03T11:02:13.046Z,42.66
2024-03-03T11:03:13.305Z,50.50
2024-03-03T11:04:13.503Z,51.62
2024-03-03T11:05:13.607Z,49.02
2024-03-03T11:06:13.960Z,50.48
2024-03-03T11:07:14.138Z,48.94
2024-03-03T11:08:14.268Z,47.32
2024-03-03T11:09:14.423Z,49.64
2024-03-03T11:10:14.773Z,50.20
2024-03-03T11:11:14.897Z,50.35
2024-03-03T11:12:15.040Z,48.88
2024-03-03T11:13:15.293Z,47.64
2024-03-03T11:14:15.413Z,46.46
2024-03-03T11:15:15.598Z,47.83
2024-03-03T11:16:15.814Z,48.56
2024-03-03T11:17:15.975Z,50.01
2024-03-03T11:18:16.305Z,50.01
2024-03-03T11:19:16.517Z,49.91
2024-03-03T11:20:16.580Z,51.87
2024-03-03T11:21:16.815Z,49.84
2024-03-03T11:22:17.050Z,49.91
2024-03-03T11:23:17.179Z,50.00
2024-03-03T11:24:17.425Z,50.09
2024-03-03T11:25:17.592Z,50.00
2024-03-03T11:26:17.760Z,51.67
2024-03-03T11:27:17.973Z,53.47
2024-03-03T11:28:18.291Z,51.21
2024-03-03T11:29:18.369Z,50.00
2024-03-03T11:30:18.608Z,49.97
2024-03-03T11:31:18.841Z,50.61
2024-03-03T11:32:18.946Z,50.09
2024-03-03T11:33:19.174Z,51.71
2024-03-03T11:34:19.364Z,53.74
2024-03-03T11:35:19.554Z,53.80
2024-03-03T11:36:19.767Z,53.57
2024-03-03T11:37:19.994Z,53.85
2024-03-03T11:38:20.190Z,52.35
2024-03-03T11:39:20.380Z,53.05
2024-03-03T11:40:21.322Z,52.89
2024-03-03T11:41:20.491Z,54.02
2024-03-03T11:42:20.432Z,50.91
2024-03-03T11:43:20.423Z,52.40
2024-03-03T11:44:20.329Z,52.26
2024-03-03T11:45:20.505Z,50.48
2024-03-03T11:46:20.683Z,51.63
2024-03-03T11:47:20.956Z,51.53
2024-03-03T11:48:21.090Z,50.60
2024-03-03T11:49:21.377Z,50.04
2024-03-03T11:50:21.512Z,50.32
2024-03-03T11:51:21.770Z,50.51
2024-03-03T11:52:21.937Z,51.72
2024-03-03T11:53:22.184Z,51.94
2024-03-03T11:54:22.389Z,52.11
2024-03-03T11:55:22.653Z,53.09
2024-03-03T11:56:22.721Z,51.32
2024-03-03T11:57:22.962Z,52.40
2024-03-03T11:58:23.120Z,50.47
2024-03-03T11:59:23.287Z,50.40
2024-03-03T12:00:23.450Z,50.57
2024-03-03T12:01:23.803Z,52.46
2024-03-03T12:02:23.834Z,53.80
2024-03-03T12:03:23.956Z,53.86
2024-03-03T12:04:24.184Z,54.03
2024-03-03T12:05:24.345Z,52.26
2024-03-03T12:06:24.445Z,53.29
2024-03-03T12:07:24.720Z,52.76
2024-03-03T12:08:24.869Z,52.79
2024-03-03T12:09:25.057Z,51.64
2024-03-03T12:10:25.282Z,50.00
2024-03-03T12:11:25.463Z,50.23
2024-03-03T12:12:25.574Z,50.57
2024-03-03T12:14:25.958Z,51.15
2024-03-03T12:15:26.132Z,51.35
2024-03-03T12:16:26.519Z,50.53
2024-03-03T12:17:26.583Z,50.12
2024-03-03T12:18:26.855Z,50.51
2024-03-03T12:19:27.031Z,51.29
2024-03-03T12:20:27.242Z,53.47
2024-03-03T12:21:27.413Z,55.67
2024-03-03T12:22:27.608Z,56.90
2024-03-03T12:23:27.885Z,57.61
2024-03-03T12:24:27.973Z,58.06
2024-03-03T12:25:28.431Z,58.82
2024-03-03T12:26:28.142Z,59.29
2024-03-03T12:27:28.136Z,58.88
2024-03-03T12:28:28.168Z,58.39
2024-03-03T12:29:28.052Z,60.19
2024-03-03T12:30:28.165Z,60.58
2024-03-03T12:31:28.348Z,61.54
2024-03-03T12:32:28.563Z,60.90
2024-03-03T12:33:28.791Z,62.24
2024-03-03T12:34:29.055Z,62.17
2024-03-03T12:35:29.087Z,59.89
2024-03-03T12:36:29.329Z,58.87
2024-03-03T12:37:29.568Z,58.77
2024-03-03T12:38:29.817Z,57.30
2024-03-03T12:39:29.930Z,56.35
2024-03-03T12:40:30.261Z,56.12
2024-03-03T12:41:30.358Z,56.52